createdAt,value
2018-10-01T01:29:14.215Z,14.77
2018-10-01T01:29:14.787Z,15.16
2018-10-01T01:29:15.385Z,15.06
2018-10-01T01:29:15.987Z,14.77
2018-10-01T01:29:16.584Z,15.16
2018-10-01T01:29:17.184Z,14.48
2018-10-01T01:29:17.786Z,15.34
2018-10-01T01:29:18.383Z,14.68
2018-10-01T01:30:11.865Z,14.87
2018-10-01T01:30:12.438Z,14.77
2018-10-01T01:30:13.039Z,14.77
2018-10-01T01:30:13.638Z,14.29
2018-10-01T01:30:14.238Z,14.77
2018-10-01T01:30:14.839Z,14.29
2018-10-01T01:30:15.437Z,14.20
2018-10-01T01:30:16.037Z,14.87
2018-10-01T01:31:09.516Z,14.48
2018-10-01T01:31:10.097Z,14.48
2018-10-01T01:31:10.692Z,14.29
2018-10-01T01:31:11.290Z,14.29
2018-10-01T01:31:11.891Z,14.39
2018-10-01T01:31:12.489Z,14.58
2018-10-01T01:31:13.090Z,14.39
2018-10-01T01:31:13.691Z,14.29
2018-10-01T01:32:07.169Z,14.29
2018-10-01T01:32:07.745Z,14.29
2018-10-01T01:32:08.342Z,14.29
2018-10-01T01:32:08.943Z,14.39
2018-10-01T01:32:09.542Z,14.29
2018-10-01T01:32:10.142Z,14.20
2018-10-01T01:32:10.742Z,14.29
2018-10-01T01:32:11.344Z,14.39
2018-10-01T01:33:04.821Z,14.01
2018-10-01T01:33:05.397Z,13.92
2018-10-01T01:33:05.995Z,13.82
2018-10-01T01:33:06.595Z,13.82
2018-10-01T01:33:07.194Z,13.92
2018-10-01T01:33:07.794Z,14.11
2018-10-01T01:33:08.395Z,13.45
2018-10-01T01:33:08.994Z,13.63
2018-10-01T01:34:02.472Z,14.29
2018-10-01T01:34:03.054Z,14.20
2018-10-01T01:34:03.646Z,13.92
2018-10-01T01:34:04.246Z,14.20
2018-10-01T01:34:04.852Z,14.20
2018-10-01T01:34:05.447Z,14.29
2018-10-01T01:34:06.050Z,14.29
2018-10-01T01:34:06.645Z,14.20
2018-10-01T01:35:01.149Z,14.48
2018-10-01T01:35:01.727Z,14.87
2018-10-01T01:35:02.322Z,14.48
2018-10-01T01:35:02.922Z,14.87
2018-10-01T01:35:03.521Z,14.77
2018-10-01T01:35:04.123Z,14.77
2018-10-01T01:35:04.724Z,14.77
2018-10-01T01:35:05.322Z,14.96
2018-10-01T01:35:58.801Z,14.68
2018-10-01T01:35:59.377Z,15.06
2018-10-01T01:35:59.975Z,15.16
2018-10-01T01:36:00.574Z,14.87
2018-10-01T01:36:01.174Z,14.87
2018-10-01T01:36:01.774Z,14.77
2018-10-01T01:36:02.376Z,14.58
2018-10-01T01:36:02.974Z,14.77
2018-10-01T01:36:57.475Z,13.63
2018-10-01T01:36:58.054Z,13.63
2018-10-01T01:36:58.650Z,13.63
2018-10-01T01:36:59.250Z,13.53
2018-10-01T01:36:59.851Z,13.53
2018-10-01T01:37:00.449Z,13.63
2018-10-01T01:37:01.050Z,13.53
2018-10-01T01:37:01.652Z,13.63
2018-10-01T01:37:56.153Z,11.82
2018-10-01T01:37:56.728Z,12.01
2018-10-01T01:37:57.327Z,12.10
2018-10-01T01:37:57.925Z,12.01
2018-10-01T01:37:58.527Z,12.01
2018-10-01T01:37:59.127Z,11.82
2018-10-01T01:37:59.726Z,12.01
2018-10-01T01:38:00.326Z,12.10
2018-10-01T01:38:53.804Z,11.82
2018-10-01T01:38:54.379Z,11.72
2018-10-01T01:38:54.978Z,11.82
2018-10-01T01:38:55.579Z,11.72
2018-10-01T01:38:56.178Z,11.82
2018-10-01T01:38:56.778Z,11.82
2018-10-01T01:38:57.379Z,12.29
2018-10-01T01:38:57.978Z,11.82
2018-10-01T01:39:52.481Z,12.77
2018-10-01T01:39:53.059Z,12.77
2018-10-01T01:39:53.655Z,12.68
2018-10-01T01:39:54.253Z,12.58
2018-10-01T01:39:54.856Z,12.58
2018-10-01T01:39:55.453Z,12.68
2018-10-01T01:39:56.053Z,12.87
2018-10-01T01:39:56.653Z,12.68
2018-10-01T01:40:50.133Z,12.68
2018-10-01T01:40:50.711Z,12.58
2018-10-01T01:40:51.306Z,12.58
2018-10-01T01:40:51.905Z,12.58
2018-10-01T01:40:52.508Z,12.68
2018-10-01T01:40:53.106Z,12.77
2018-10-01T01:40:53.705Z,12.58
2018-10-01T01:40:54.306Z,12.77
2018-10-01T01:41:47.783Z,10.39
2018-10-01T01:41:48.364Z,10.58
2018-10-01T01:41:48.962Z,10.68
2018-10-01T01:41:49.559Z,10.68
2018-10-01T01:41:50.160Z,10.58
2018-10-01T01:41:50.762Z,10.48
2018-10-01T01:41:51.358Z,10.48
2018-10-01T01:41:51.957Z,10.48
2018-10-01T01:42:46.462Z,9.34
2018-10-01T01:42:47.035Z,9.34
2018-10-01T01:42:47.633Z,9.24
2018-10-01T01:42:48.237Z,9.34
2018-10-01T01:42:48.836Z,9.24
2018-10-01T01:42:49.433Z,8.96
2018-10-01T01:42:50.034Z,8.96
2018-10-01T01:42:50.633Z,8.96
2018-10-01T01:43:44.111Z,8.86
2018-10-01T01:43:44.688Z,9.05
2018-10-01T01:43:45.287Z,9.05
2018-10-01T01:43:45.885Z,8.96
2018-10-01T01:43:46.488Z,8.67
2018-10-01T01:43:47.086Z,9.05
2018-10-01T01:43:47.686Z,8.58
2018-10-01T01:43:48.284Z,8.48
2018-10-01T01:44:42.789Z,8.58
2018-10-01T01:44:43.361Z,8.58
2018-10-01T01:44:43.962Z,8.67
2018-10-01T01:44:44.561Z,8.67
2018-10-01T01:44:45.161Z,8.58
2018-10-01T01:44:45.761Z,8.58
2018-10-01T01:44:46.362Z,8.67
2018-10-01T01:44:46.962Z,8.58
2018-10-01T01:45:40.505Z,9.05
2018-10-01T01:45:41.081Z,9.34
2018-10-01T01:45:41.646Z,9.05
2018-10-01T01:45:42.221Z,9.05
2018-10-01T01:45:42.815Z,9.63
2018-10-01T01:45:43.416Z,9.05
2018-10-01T01:45:44.023Z,9.44
2018-10-01T01:45:44.614Z,9.24
2018-10-01T01:46:39.117Z,9.24
2018-10-01T01:46:39.692Z,8.96
2018-10-01T01:46:40.294Z,9.24
2018-10-01T01:46:40.889Z,9.24
2018-10-01T01:46:41.487Z,9.24
2018-10-01T01:46:42.090Z,9.15
2018-10-01T01:46:42.690Z,9.15
2018-10-01T01:46:43.319Z,9.15
2018-10-01T01:47:38.303Z,9.24
2018-10-01T01:47:38.877Z,9.15
2018-10-01T01:47:39.476Z,9.24
2018-10-01T01:47:40.076Z,8.76
2018-10-01T01:47:40.676Z,9.05
2018-10-01T01:47:41.277Z,9.24
2018-10-01T01:47:41.877Z,9.34
2018-10-01T01:48:35.446Z,9.34
2018-10-01T01:48:36.019Z,9.34
2018-10-01T01:48:36.632Z,9.34
2018-10-01T01:48:37.217Z,9.24
2018-10-01T01:48:37.815Z,9.34
2018-10-01T01:48:38.417Z,9.24
2018-10-01T01:48:39.017Z,9.24
2018-10-01T01:48:39.617Z,9.34
2018-10-01T01:49:33.092Z,9.81
2018-10-01T01:49:33.673Z,9.72
2018-10-01T01:49:34.306Z,9.72
2018-10-01T01:49:34.867Z,9.72
2018-10-01T01:49:35.466Z,9.72
2018-10-01T01:49:36.066Z,9.72
2018-10-01T01:49:36.665Z,9.63
2018-10-01T01:49:37.266Z,9.53
2018-10-01T01:50:30.853Z,10.10
2018-10-01T01:50:31.428Z,10.30
2018-10-01T01:50:32.024Z,10.39
2018-10-01T01:50:32.627Z,10.11
2018-10-01T01:50:33.223Z,10.20
2018-10-01T01:50:33.822Z,10.20
2018-10-01T01:50:34.425Z,10.11
2018-10-01T01:50:35.023Z,10.30
2018-10-01T01:51:30.035Z,10.87
2018-10-01T01:51:30.611Z,11.25
2018-10-01T01:51:31.208Z,11.16
2018-10-01T01:51:31.809Z,11.06
2018-10-01T01:51:32.409Z,10.86
2018-10-01T01:51:33.009Z,11.16
2018-10-01T01:51:33.615Z,10.68
2018-10-01T01:52:40.188Z,11.16
2018-10-01T01:52:40.757Z,11.16
2018-10-01T01:52:41.354Z,11.35
2018-10-01T01:53:35.887Z,11.92
2018-10-01T01:53:36.462Z,11.92
2018-10-01T01:53:37.063Z,11.92
2018-10-01T01:53:37.665Z,11.82
2018-10-01T01:53:38.259Z,11.92
2018-10-01T01:53:38.859Z,11.92
2018-10-01T01:53:39.462Z,11.72
2018-10-01T01:53:40.062Z,11.63
2018-10-01T01:54:33.639Z,12.11
2018-10-01T01:54:34.141Z,12.30
2018-10-01T01:54:34.735Z,12.30
2018-10-01T01:54:35.338Z,12.30
2018-10-01T01:54:35.933Z,12.30
2018-10-01T01:54:36.533Z,12.21
2018-10-01T01:54:37.135Z,11.82
2018-10-01T01:54:37.737Z,12.11
2018-10-01T01:55:32.229Z,12.30
2018-10-01T01:55:32.787Z,12.11
2018-10-01T01:55:33.385Z,12.21
2018-10-01T01:55:33.986Z,12.40
2018-10-01T01:55:34.587Z,12.11
2018-10-01T01:55:35.186Z,12.49
2018-10-01T01:55:35.784Z,12.49
2018-10-01T01:55:36.386Z,12.49
2018-10-01T01:56:29.865Z,12.77
2018-10-01T01:56:30.444Z,12.87
2018-10-01T01:56:31.040Z,12.87
2018-10-01T01:56:31.638Z,13.25
2018-10-01T01:56:32.239Z,13.35
2018-10-01T01:56:32.839Z,13.45
2018-10-01T01:56:33.452Z,13.25
2018-10-01T01:56:34.053Z,13.25
2018-10-01T01:57:29.053Z,14.30
2018-10-01T01:57:29.628Z,14.21
2018-10-01T01:57:30.227Z,14.40
2018-10-01T01:57:30.828Z,14.50
2018-10-01T01:57:31.426Z,14.40
2018-10-01T01:57:32.027Z,14.59
2018-10-01T01:58:27.012Z,15.16
2018-10-01T01:58:27.588Z,15.06
2018-10-01T01:58:28.187Z,15.16
2018-10-01T01:58:28.786Z,15.26
2018-10-01T01:58:29.386Z,15.16
2018-10-01T01:58:30.008Z,15.16
2018-10-01T01:58:30.587Z,14.97
2018-10-01T01:58:31.188Z,15.16
2018-10-01T01:59:25.175Z,15.73
2018-10-01T01:59:25.755Z,15.73
2018-10-01T01:59:26.354Z,15.73
2018-10-01T01:59:26.955Z,15.83
2018-10-01T01:59:27.551Z,15.92
2018-10-01T01:59:28.148Z,15.83
2018-10-01T01:59:28.748Z,15.83
2018-10-01T02:00:23.281Z,15.92
2018-10-01T02:00:23.783Z,16.11
2018-10-01T02:00:24.382Z,16.40
2018-10-01T02:00:24.981Z,16.11
2018-10-01T02:00:25.580Z,15.92
2018-10-01T02:00:26.185Z,16.11
2018-10-01T02:00:26.781Z,16.40
2018-10-01T02:01:22.837Z,16.59
2018-10-01T02:01:23.411Z,16.59
2018-10-01T02:01:24.010Z,17.07
2018-10-01T02:01:24.610Z,16.50
2018-10-01T02:01:25.208Z,16.59
2018-10-01T02:01:25.808Z,16.50
2018-10-01T02:01:26.409Z,16.78
2018-10-01T02:01:27.009Z,17.07
2018-10-01T02:02:21.000Z,17.74
2018-10-01T02:02:21.576Z,17.93
2018-10-01T02:02:22.173Z,17.93
2018-10-01T02:02:22.786Z,17.74
2018-10-01T02:02:23.393Z,17.93
2018-10-01T02:02:23.971Z,17.83
2018-10-01T02:02:24.572Z,17.83
2018-10-01T02:03:54.592Z,18.50
2018-10-01T02:03:55.167Z,18.40
2018-10-01T02:03:55.766Z,18.40
2018-10-01T02:03:56.367Z,18.69
2018-10-01T02:03:56.966Z,18.50
2018-10-01T02:03:57.571Z,18.69
2018-10-01T02:03:58.165Z,18.69
2018-10-01T02:03:58.770Z,18.79
2018-10-01T02:03:59.414Z,18.79
2018-10-01T02:03:59.965Z,18.88
2018-10-01T02:04:00.566Z,18.98
2018-10-01T02:04:01.166Z,18.88
2018-10-01T02:04:01.766Z,18.88
2018-10-01T02:04:02.364Z,19.07
2018-10-01T02:04:02.968Z,18.88
2018-10-01T02:04:03.564Z,18.79
2018-10-01T02:05:05.044Z,19.93
2018-10-01T02:05:05.638Z,20.03
2018-10-01T02:05:06.218Z,20.21
2018-10-01T02:05:06.819Z,20.31
2018-10-01T02:05:07.422Z,19.93
2018-10-01T02:05:08.016Z,20.03
2018-10-01T02:05:08.636Z,19.93
2018-10-01T02:05:09.217Z,20.03
2018-10-01T02:05:09.817Z,20.03
2018-10-01T02:05:10.416Z,20.03
2018-10-01T02:05:11.017Z,20.40
2018-10-01T02:05:11.652Z,20.50
2018-10-01T02:06:08.152Z,20.31
2018-10-01T02:06:08.698Z,20.50
2018-10-01T02:06:09.296Z,20.31
2018-10-01T02:07:04.341Z,19.93
2018-10-01T02:07:04.917Z,19.93
2018-10-01T02:07:05.514Z,20.03
2018-10-01T02:07:06.115Z,20.03
2018-10-01T02:07:06.717Z,20.03
2018-10-01T02:07:07.321Z,20.03
2018-10-01T02:07:07.915Z,20.50
2018-10-01T02:08:02.415Z,20.21
2018-10-01T02:08:02.981Z,20.21
2018-10-01T02:08:03.576Z,20.21
2018-10-01T02:08:04.178Z,20.40
2018-10-01T02:08:04.775Z,20.50
2018-10-01T02:08:05.380Z,20.21
2018-10-01T02:08:05.979Z,20.40
2018-10-01T02:08:06.578Z,20.40
2018-10-01T02:09:00.579Z,21.08
2018-10-01T02:09:01.145Z,21.36
2018-10-01T02:09:01.741Z,21.55
2018-10-01T02:09:02.341Z,21.36
2018-10-01T02:09:02.940Z,21.45
2018-10-01T02:09:03.541Z,21.36
2018-10-01T02:09:04.141Z,21.17
2018-10-01T02:09:58.641Z,21.93
2018-10-01T02:09:59.203Z,21.74
2018-10-01T02:09:59.802Z,21.55
2018-10-01T02:10:00.403Z,21.74
2018-10-01T02:10:01.001Z,21.64
2018-10-01T02:10:01.605Z,21.84
2018-10-01T02:10:02.214Z,21.84
2018-10-01T02:10:02.801Z,21.74
2018-10-01T02:10:57.816Z,21.36
2018-10-01T02:10:58.390Z,21.36
2018-10-01T02:10:58.990Z,21.36
2018-10-01T02:10:59.596Z,21.26
2018-10-01T02:11:00.193Z,21.26
2018-10-01T02:11:00.803Z,21.36
2018-10-01T02:11:01.402Z,21.26
2018-10-01T02:11:56.388Z,21.55
2018-10-01T02:11:56.967Z,21.84
2018-10-01T02:11:57.564Z,21.74
2018-10-01T02:11:58.166Z,21.84
2018-10-01T02:11:58.762Z,21.84
2018-10-01T02:11:59.367Z,21.55
2018-10-01T02:11:59.967Z,21.93
2018-10-01T02:12:54.978Z,22.13
2018-10-01T02:12:55.538Z,22.41
2018-10-01T02:12:56.135Z,22.89
2018-10-01T02:12:56.735Z,22.31
2018-10-01T02:12:57.339Z,22.22
2018-10-01T02:12:57.934Z,22.31
2018-10-01T02:12:58.537Z,22.50
2018-10-01T02:13:52.108Z,23.27
2018-10-01T02:13:52.679Z,23.36
2018-10-01T02:13:53.289Z,23.27
2018-10-01T02:13:53.913Z,23.08
2018-10-01T02:13:54.475Z,23.27
2018-10-01T02:13:55.077Z,23.27
2018-10-01T02:13:55.677Z,23.27
2018-10-01T02:13:56.276Z,23.08
2018-10-01T02:14:49.866Z,23.36
2018-10-01T02:14:50.436Z,23.46
2018-10-01T02:14:51.033Z,23.55
2018-10-01T02:14:51.632Z,23.74
2018-10-01T02:14:52.234Z,23.46
2018-10-01T02:14:52.832Z,23.46
2018-10-01T02:14:53.433Z,23.65
2018-10-01T02:14:54.031Z,23.84
2018-10-01T02:15:47.543Z,23.84
2018-10-01T02:15:48.084Z,23.74
2018-10-01T02:15:48.683Z,23.84
2018-10-01T02:15:49.287Z,23.84
2018-10-01T02:15:49.896Z,23.74
2018-10-01T02:15:50.483Z,24.03
2018-10-01T02:15:51.084Z,23.84
2018-10-01T02:15:51.682Z,23.93
2018-10-01T02:16:45.162Z,23.93
2018-10-01T02:16:45.735Z,23.93
2018-10-01T02:16:46.340Z,24.13
2018-10-01T02:16:46.939Z,24.13
2018-10-01T02:16:47.540Z,24.03
2018-10-01T02:16:48.135Z,23.93
2018-10-01T02:16:48.734Z,23.93
2018-10-01T02:16:49.333Z,24.13
2018-10-01T02:17:43.838Z,24.22
2018-10-01T02:17:44.408Z,24.51
2018-10-01T02:17:45.007Z,24.52
2018-10-01T02:17:45.608Z,24.52
2018-10-01T02:17:46.207Z,24.41
2018-10-01T02:17:46.808Z,24.43
2018-10-01T02:17:47.409Z,24.13
2018-10-01T02:17:48.010Z,24.51
2018-10-01T02:18:42.514Z,23.94
2018-10-01T02:18:43.091Z,23.93
2018-10-01T02:18:43.683Z,23.93
2018-10-01T02:18:44.287Z,24.13
2018-10-01T02:18:44.884Z,23.93
2018-10-01T02:18:45.482Z,23.93
2018-10-01T02:18:46.083Z,24.03
2018-10-01T02:18:46.682Z,24.04
2018-10-01T02:19:40.162Z,24.79
2018-10-01T02:19:40.737Z,24.79
2018-10-01T02:19:41.338Z,24.80
2018-10-01T02:19:41.937Z,24.89
2018-10-01T02:19:42.540Z,24.89
2018-10-01T02:19:43.139Z,24.89
2018-10-01T02:19:43.749Z,24.90
2018-10-01T02:19:44.355Z,24.89
2018-10-01T02:20:37.918Z,24.89
2018-10-01T02:20:38.492Z,24.99
2018-10-01T02:20:39.092Z,24.89
2018-10-01T02:20:39.693Z,25.08
2018-10-01T02:20:40.293Z,24.90
2018-10-01T02:20:40.893Z,24.98
2018-10-01T02:20:41.509Z,24.89
2018-10-01T02:20:42.089Z,25.08
2018-10-01T02:21:35.570Z,25.46
2018-10-01T02:21:36.170Z,25.56
2018-10-01T02:21:36.744Z,25.65
2018-10-01T02:21:37.343Z,25.67
2018-10-01T02:21:37.947Z,25.37
2018-10-01T02:21:38.544Z,25.65
2018-10-01T02:21:39.144Z,25.65
2018-10-01T02:21:39.743Z,25.65
2018-10-01T02:22:34.247Z,26.22
2018-10-01T02:22:34.819Z,26.04
2018-10-01T02:22:35.418Z,26.03
2018-10-01T02:22:36.018Z,26.13
2018-10-01T02:22:36.621Z,26.03
2018-10-01T02:22:37.217Z,26.03
2018-10-01T02:22:37.818Z,26.03
2018-10-01T02:22:38.421Z,26.03
2018-10-01T02:23:31.896Z,26.03
2018-10-01T02:23:32.471Z,25.94
2018-10-01T02:23:33.071Z,25.65
2018-10-01T02:23:33.670Z,25.85
2018-10-01T02:23:34.272Z,25.74
2018-10-01T02:23:34.872Z,25.65
2018-10-01T02:23:35.471Z,25.67
2018-10-01T02:23:36.069Z,25.84
2018-10-01T02:24:30.574Z,25.46
2018-10-01T02:24:31.152Z,25.46
2018-10-01T02:24:31.745Z,25.46
2018-10-01T02:24:32.353Z,25.56
2018-10-01T02:24:32.943Z,25.65
2018-10-01T02:24:33.547Z,25.46
2018-10-01T02:24:34.144Z,25.57
2018-10-01T02:24:34.745Z,25.47
2018-10-01T02:25:29.249Z,25.56
2018-10-01T02:25:29.821Z,25.74
2018-10-01T02:25:30.421Z,25.74
2018-10-01T02:25:31.020Z,25.67
2018-10-01T02:25:31.620Z,25.76
2018-10-01T02:25:32.221Z,25.67
2018-10-01T02:25:32.821Z,25.65
2018-10-01T02:25:33.420Z,25.56
2018-10-01T02:26:26.900Z,25.74
2018-10-01T02:26:27.479Z,25.74
2018-10-01T02:26:28.075Z,25.74
2018-10-01T02:26:28.674Z,25.74
2018-10-01T02:26:29.275Z,26.03
2018-10-01T02:26:29.875Z,25.76
2018-10-01T02:26:30.477Z,25.85
2018-10-01T02:26:31.074Z,25.94
2018-10-01T02:27:25.577Z,26.13
2018-10-01T02:27:26.155Z,26.24
2018-10-01T02:27:26.749Z,26.33
2018-10-01T02:27:27.349Z,25.85
2018-10-01T02:27:27.953Z,26.33
2018-10-01T02:27:28.551Z,26.22
2018-10-01T02:27:29.149Z,26.32
2018-10-01T02:27:29.749Z,26.04
2018-10-01T02:28:23.741Z,26.51
2018-10-01T02:28:24.342Z,26.22
2018-10-01T02:28:24.912Z,26.52
2018-10-01T02:28:25.512Z,26.43
2018-10-01T02:28:26.113Z,26.42
2018-10-01T02:28:26.750Z,26.51
2018-10-01T02:28:27.317Z,26.43
2018-10-01T02:29:20.896Z,26.13
2018-10-01T02:29:21.454Z,26.03
2018-10-01T02:29:22.056Z,26.04
2018-10-01T02:29:22.657Z,26.03
2018-10-01T02:29:23.254Z,26.13
2018-10-01T02:29:23.900Z,26.33
2018-10-01T02:29:24.453Z,26.33
2018-10-01T02:29:25.052Z,26.32
2018-10-01T02:30:21.089Z,26.61
2018-10-01T02:30:21.671Z,26.42
2018-10-01T02:30:22.264Z,26.51
2018-10-01T02:30:22.862Z,26.33
2018-10-01T02:30:23.463Z,26.52
2018-10-01T02:30:24.073Z,26.51
2018-10-01T02:31:19.052Z,25.65
2018-10-01T02:31:19.624Z,25.74
2018-10-01T02:31:20.225Z,25.74
2018-10-01T02:31:20.824Z,25.74
2018-10-01T02:31:21.427Z,25.65
2018-10-01T02:31:22.025Z,25.65
2018-10-01T02:31:22.624Z,25.74
2018-10-01T02:31:23.222Z,26.14
2018-10-01T02:32:17.725Z,24.69
2018-10-01T02:32:18.301Z,24.89
2018-10-01T02:32:18.898Z,24.69
2018-10-01T02:32:19.510Z,24.69
2018-10-01T02:32:20.097Z,24.69
2018-10-01T02:32:20.700Z,24.89
2018-10-01T02:32:21.299Z,25.08
2018-10-01T02:32:21.897Z,24.69
2018-10-01T02:33:16.401Z,24.98
2018-10-01T02:33:16.979Z,25.37
2018-10-01T02:33:17.574Z,24.89
2018-10-01T02:33:18.173Z,24.98
2018-10-01T02:33:18.786Z,24.89
2018-10-01T02:33:19.373Z,25.08
2018-10-01T02:33:19.984Z,24.89
2018-10-01T02:33:20.574Z,24.98
2018-10-01T02:34:15.078Z,24.79
2018-10-01T02:34:15.650Z,24.98
2018-10-01T02:34:16.252Z,24.71
2018-10-01T02:34:16.850Z,24.89
2018-10-01T02:34:17.450Z,24.89
2018-10-01T02:34:18.050Z,25.08
2018-10-01T02:34:18.649Z,24.89
2018-10-01T02:34:19.273Z,24.79
2018-10-01T02:35:12.729Z,24.41
2018-10-01T02:35:13.309Z,24.41
2018-10-01T02:35:13.902Z,24.51
2018-10-01T02:35:14.501Z,24.41
2018-10-01T02:35:15.112Z,24.51
2018-10-01T02:35:15.708Z,24.51
2018-10-01T02:35:16.303Z,24.03
2018-10-01T02:35:16.901Z,24.32
2018-10-01T02:36:10.483Z,24.51
2018-10-01T02:36:11.057Z,24.51
2018-10-01T02:36:11.656Z,24.41
2018-10-01T02:36:12.257Z,24.69
2018-10-01T02:36:12.860Z,24.79
2018-10-01T02:36:13.457Z,24.79
2018-10-01T02:36:14.056Z,24.51
2018-10-01T02:36:14.662Z,24.41
2018-10-01T02:37:09.670Z,23.17
2018-10-01T02:37:10.244Z,22.69
2018-10-01T02:37:10.843Z,23.17
2018-10-01T02:37:11.465Z,23.08
2018-10-01T02:37:12.686Z,23.08
2018-10-01T02:37:13.192Z,22.89
2018-10-01T02:38:27.704Z,22.50
2018-10-01T02:38:28.274Z,22.13
2018-10-01T02:38:28.875Z,22.41
2018-10-01T02:38:29.481Z,22.52
2018-10-01T02:38:30.090Z,22.31
2018-10-01T02:38:30.671Z,22.13
2018-10-01T02:38:31.273Z,22.03
2018-10-01T02:38:31.873Z,22.13
2018-10-01T02:39:25.373Z,22.03
2018-10-01T02:39:25.931Z,21.94
2018-10-01T02:39:26.545Z,22.13
2018-10-01T02:39:27.124Z,21.93
2018-10-01T02:39:27.728Z,21.93
2018-10-01T02:39:28.324Z,22.03
2018-10-01T02:39:28.925Z,22.04
2018-10-01T02:39:29.537Z,22.23
2018-10-01T02:40:23.001Z,22.60
2018-10-01T02:40:23.579Z,22.99
2018-10-01T02:40:24.177Z,22.79
2018-10-01T02:40:24.782Z,22.42
2018-10-01T02:40:25.382Z,22.50
2018-10-01T02:40:25.978Z,22.61
2018-10-01T02:40:26.577Z,22.79
2018-10-01T02:40:27.176Z,22.60
2018-10-01T02:41:20.655Z,23.55
2018-10-01T02:41:21.229Z,23.66
2018-10-01T02:41:21.830Z,23.65
2018-10-01T02:41:22.428Z,23.46
2018-10-01T02:41:23.033Z,23.94
2018-10-01T02:41:23.629Z,23.27
2018-10-01T02:41:24.229Z,23.94
2018-10-01T02:41:24.870Z,24.03
2018-10-01T02:42:19.338Z,24.13
2018-10-01T02:42:19.904Z,24.41
2018-10-01T02:42:20.504Z,24.13
2018-10-01T02:42:21.104Z,24.51
2018-10-01T02:42:21.721Z,24.32
2018-10-01T02:42:22.303Z,24.41
2018-10-01T02:42:22.904Z,24.33
2018-10-01T02:42:23.503Z,24.41
2018-10-01T02:43:18.007Z,24.79
2018-10-01T02:43:18.584Z,24.69
2018-10-01T02:43:19.177Z,24.71
2018-10-01T02:43:19.777Z,24.80
2018-10-01T02:43:20.381Z,24.51
2018-10-01T02:43:20.977Z,24.69
2018-10-01T02:43:21.577Z,24.51
2018-10-01T02:43:22.177Z,24.69
2018-10-01T02:44:16.682Z,24.32
2018-10-01T02:44:17.256Z,24.33
2018-10-01T02:44:17.856Z,24.43
2018-10-01T02:44:18.455Z,24.43
2018-10-01T02:44:19.058Z,24.23
2018-10-01T02:44:19.661Z,24.60
2018-10-01T02:44:20.254Z,24.51
2018-10-01T02:44:20.855Z,24.22
2018-10-01T02:45:14.343Z,24.03
2018-10-01T02:45:14.908Z,24.03
2018-10-01T02:45:15.507Z,23.93
2018-10-01T02:45:16.107Z,24.14
2018-10-01T02:45:16.712Z,24.13
2018-10-01T02:45:17.309Z,23.85
2018-10-01T02:45:17.912Z,24.22
2018-10-01T02:45:18.524Z,23.84
2018-10-01T02:46:11.989Z,24.13
2018-10-01T02:46:12.562Z,24.13
2018-10-01T02:46:13.160Z,24.13
2018-10-01T02:46:13.759Z,24.13
2018-10-01T02:46:14.361Z,23.84
2018-10-01T02:46:14.967Z,24.13
2018-10-01T02:46:15.560Z,23.93
2018-10-01T02:46:16.161Z,23.93
2018-10-01T02:47:10.662Z,23.74
2018-10-01T02:47:11.245Z,23.74
2018-10-01T02:47:11.835Z,23.74
2018-10-01T02:47:12.435Z,23.65
2018-10-01T02:47:13.038Z,23.74
2018-10-01T02:47:13.636Z,23.65
2018-10-01T02:47:14.260Z,23.74
2018-10-01T02:47:14.833Z,23.65
2018-10-01T02:48:08.312Z,22.89
2018-10-01T02:48:08.889Z,22.89
2018-10-01T02:48:09.490Z,23.08
2018-10-01T02:48:10.089Z,22.89
2018-10-01T02:48:10.689Z,22.89
2018-10-01T02:48:11.301Z,22.98
2018-10-01T02:48:11.888Z,22.89
2018-10-01T02:48:12.487Z,22.98
2018-10-01T02:49:06.066Z,22.89
2018-10-01T02:49:06.642Z,22.79
2018-10-01T02:49:07.242Z,22.61
2018-10-01T02:49:07.860Z,22.79
2018-10-01T02:49:08.447Z,22.79
2018-10-01T02:49:09.048Z,22.79
2018-10-01T02:49:09.646Z,22.89
2018-10-01T02:49:10.243Z,22.89
2018-10-01T02:50:04.748Z,22.98
2018-10-01T02:50:05.341Z,22.98
2018-10-01T02:50:05.916Z,22.98
2018-10-01T02:50:06.517Z,23.17
2018-10-01T02:50:07.122Z,23.17
2018-10-01T02:50:07.714Z,23.17
2018-10-01T02:50:08.316Z,22.98
2018-10-01T02:50:08.915Z,23.08
2018-10-01T02:51:02.397Z,23.27
2018-10-01T02:51:02.969Z,23.17
2018-10-01T02:51:03.576Z,23.27
2018-10-01T02:51:04.177Z,23.17
2018-10-01T02:51:04.771Z,23.27
2018-10-01T02:51:05.370Z,23.27
2018-10-01T02:51:05.980Z,23.27
2018-10-01T02:51:06.567Z,23.17
2018-10-01T02:52:01.076Z,23.36
2018-10-01T02:52:01.644Z,23.46
2018-10-01T02:52:02.247Z,23.46
2018-10-01T02:52:02.842Z,23.46
2018-10-01T02:52:03.447Z,23.74
2018-10-01T02:52:04.042Z,23.46
2018-10-01T02:52:04.642Z,23.74
2018-10-01T02:52:05.249Z,23.74
2018-10-01T02:52:59.746Z,24.13
2018-10-01T02:53:00.327Z,23.74
2018-10-01T02:53:00.917Z,23.74
2018-10-01T02:53:01.520Z,23.65
2018-10-01T02:53:02.119Z,23.55
2018-10-01T02:53:02.717Z,23.55
2018-10-01T02:53:03.319Z,23.65
2018-10-01T02:53:03.916Z,23.74
2018-10-01T02:53:57.500Z,23.93
2018-10-01T02:53:58.076Z,24.03
2018-10-01T02:53:58.679Z,23.93
2018-10-01T02:53:59.273Z,24.03
2018-10-01T02:53:59.880Z,23.93
2018-10-01T02:54:00.474Z,23.93
2018-10-01T02:54:01.082Z,24.03
2018-10-01T02:54:01.672Z,24.03
2018-10-01T02:54:55.152Z,23.84
2018-10-01T02:54:55.728Z,23.74
2018-10-01T02:54:56.333Z,23.84
2018-10-01T02:54:56.926Z,23.74
2018-10-01T02:54:57.540Z,23.84
2018-10-01T02:54:58.142Z,23.93
2018-10-01T02:54:58.726Z,23.84
2018-10-01T02:54:59.325Z,23.84
2018-10-01T02:55:53.318Z,23.08
2018-10-01T02:55:53.891Z,23.46
2018-10-01T02:55:54.492Z,22.98
2018-10-01T02:55:55.088Z,22.69
2018-10-01T02:55:55.707Z,22.98
2018-10-01T02:55:56.857Z,22.69
2018-10-01T02:55:57.360Z,22.41
2018-10-01T02:56:52.923Z,21.36
2018-10-01T02:56:53.486Z,21.36
2018-10-01T02:56:54.088Z,21.55
2018-10-01T02:56:54.690Z,21.64
2018-10-01T02:56:55.284Z,21.64
2018-10-01T02:56:55.886Z,21.55
2018-10-01T02:56:56.485Z,21.55
2018-10-01T02:57:50.057Z,20.98
2018-10-01T02:57:50.645Z,20.79
2018-10-01T02:57:51.229Z,20.69
2018-10-01T02:57:51.826Z,20.69
2018-10-01T02:57:52.429Z,20.79
2018-10-01T02:57:53.029Z,20.88
2018-10-01T02:57:53.629Z,20.79
2018-10-01T02:57:54.230Z,20.79
2018-10-01T02:58:47.704Z,20.50
2018-10-01T02:58:48.278Z,20.50
2018-10-01T02:58:48.878Z,20.40
2018-10-01T02:58:49.479Z,20.40
2018-10-01T02:58:50.091Z,20.40
2018-10-01T02:58:50.676Z,20.21
2018-10-01T02:58:51.276Z,20.50
2018-10-01T02:58:51.880Z,20.40
2018-10-01T02:59:46.381Z,19.55
2018-10-01T02:59:46.954Z,19.35
2018-10-01T02:59:47.556Z,19.55
2018-10-01T02:59:48.151Z,19.64
2018-10-01T02:59:48.756Z,19.64
2018-10-01T02:59:49.354Z,19.74
2018-10-01T02:59:49.951Z,19.55
2018-10-01T02:59:50.556Z,19.74
2018-10-01T03:00:44.070Z,18.98
2018-10-01T03:00:44.621Z,18.98
2018-10-01T03:00:45.206Z,18.98
2018-10-01T03:00:45.806Z,18.98
2018-10-01T03:00:46.407Z,18.88
2018-10-01T03:00:47.005Z,18.98
2018-10-01T03:00:47.611Z,18.79
2018-10-01T03:00:48.203Z,18.98
2018-10-01T03:01:41.793Z,18.59
2018-10-01T03:01:42.365Z,18.59
2018-10-01T03:01:42.961Z,18.50
2018-10-01T03:01:43.559Z,18.88
2018-10-01T03:01:44.163Z,18.59
2018-10-01T03:01:44.760Z,18.79
2018-10-01T03:01:45.357Z,18.50
2018-10-01T03:01:45.959Z,18.69
2018-10-01T03:02:39.443Z,17.16
2018-10-01T03:02:40.010Z,17.16
2018-10-01T03:02:40.614Z,16.97
2018-10-01T03:02:41.212Z,17.26
2018-10-01T03:02:41.815Z,16.97
2018-10-01T03:02:42.411Z,17.07
2018-10-01T03:02:43.010Z,17.16
2018-10-01T03:02:43.610Z,16.97
2018-10-01T03:03:37.096Z,16.50
2018-10-01T03:03:37.673Z,16.50
2018-10-01T03:03:38.296Z,16.50
2018-10-01T03:03:38.860Z,16.30
2018-10-01T03:03:39.461Z,16.50
2018-10-01T03:03:40.065Z,16.50
2018-10-01T03:03:40.662Z,16.40
2018-10-01T03:03:41.260Z,16.50
2018-10-01T03:04:35.785Z,16.21
2018-10-01T03:04:36.338Z,16.30
2018-10-01T03:04:36.937Z,16.40
2018-10-01T03:04:37.537Z,16.40
2018-10-01T03:04:38.140Z,16.59
2018-10-01T03:04:38.742Z,16.69
2018-10-01T03:04:39.337Z,16.30
2018-10-01T03:04:39.941Z,16.40
2018-10-01T03:05:34.440Z,17.07
2018-10-01T03:05:35.013Z,17.07
2018-10-01T03:05:35.614Z,17.07
2018-10-01T03:05:36.211Z,17.16
2018-10-01T03:05:36.816Z,17.16
2018-10-01T03:05:37.412Z,16.97
2018-10-01T03:05:38.016Z,17.07
2018-10-01T03:05:38.615Z,17.07